Terminal Aerodrome Forecast
Issued by NWS New Orleans/Baton Rouge, LA

Home | Current Version | Previous Version | Text Only | Print | Product List | Glossary On
Versions: 1 2 3 4 5 6 7 8 9 10 11 12 13 14 15 16 17 18
640
FTUS44 KLIX 260520
TAFBTR
TAF
KBTR 260520Z 2606/2706 16008KT P6SM SCT040
     FM261200 16011KT P6SM BKN015
     FM261700 18013KT P6SM BKN040
     FM270000 18014KT P6SM BKN020
     FM270300 19013KT 4SM SHRA VCTS OVC015CB
     FM270500 26008KT 4SM SHRA VCTS BKN015CB=

USA.gov is the U.S. government's official web portal to all federal, state and local government web resources and services.